createdAt,value
2023-04-06T00:01:47.351Z,12.82
2023-04-06T00:04:17.194Z,12.93
2023-04-06T00:06:46.946Z,15.30
2023-04-06T00:09:17.884Z,13.60
2023-04-06T00:11:47.528Z,12.70
2023-04-06T00:14:18.579Z,13.55
2023-04-06T00:16:47.632Z,14.20
2023-04-06T00:19:16.938Z,14.60
2023-04-06T00:21:46.447Z,13.58
2023-04-06T00:24:15.665Z,12.60
2023-04-06T00:26:44.467Z,12.23
2023-04-06T00:29:13.981Z,12.65
2023-04-06T00:31:42.979Z,14.90
2023-04-06T00:34:12.027Z,12.85
2023-04-06T00:36:42.074Z,12.00
2023-04-06T00:39:11.696Z,13.38
2023-04-06T00:41:41.334Z,13.10
2023-04-06T00:44:10.470Z,13.28
2023-04-06T00:46:39.402Z,13.10
2023-04-06T00:49:10.119Z,14.33
2023-04-06T00:51:39.379Z,14.83
2023-04-06T00:54:09.947Z,12.35
2023-04-06T00:56:40.558Z,12.30
2023-04-06T00:59:10.416Z,12.98
2023-04-06T01:01:41.519Z,12.10
2023-04-06T01:04:14.094Z,12.43
2023-04-06T01:06:44.817Z,13.32
2023-04-06T01:09:14.143Z,14.15
2023-04-06T01:11:44.198Z,14.53
2023-04-06T01:14:15.603Z,13.03
2023-04-06T01:16:49.787Z,12.93
2023-04-06T01:19:21.944Z,11.78
2023-04-06T01:21:54.448Z,15.25
2023-04-06T01:24:25.016Z,13.40
2023-04-06T01:27:14.915Z,14.70
2023-04-06T01:29:49.615Z,13.38
2023-04-06T01:32:20.659Z,13.93
2023-04-06T01:34:52.467Z,18.25
2023-04-06T01:37:21.294Z,13.98
2023-04-06T01:39:51.555Z,14.63
2023-04-06T01:42:22.092Z,15.88
2023-04-06T01:44:51.568Z,15.50
2023-04-06T01:47:21.411Z,16.05
2023-04-06T01:49:51.303Z,17.92
2023-04-06T01:52:22.140Z,17.73
2023-04-06T01:54:54.628Z,17.17
2023-04-06T01:57:26.573Z,15.75
2023-04-06T01:59:59.569Z,14.87
2023-04-06T02:02:35.155Z,16.95
2023-04-06T02:05:06.969Z,16.17
2023-04-06T02:07:37.531Z,18.60
2023-04-06T02:10:14.814Z,16.25
2023-04-06T02:12:45.228Z,17.35
2023-04-06T02:15:16.869Z,16.60
2023-04-06T02:17:47.551Z,16.00
2023-04-06T02:20:16.601Z,15.70
2023-04-06T02:22:47.077Z,17.65
2023-04-06T02:25:17.752Z,15.85
2023-04-06T02:27:47.117Z,18.48
2023-04-06T02:30:17.915Z,18.05
2023-04-06T02:32:47.360Z,18.60
2023-04-06T02:35:16.653Z,14.30
2023-04-06T02:37:47.408Z,14.95
2023-04-06T02:40:16.485Z,17.30
2023-04-06T02:42:46.137Z,14.65
2023-04-06T02:45:15.979Z,19.37
2023-04-06T02:47:48.199Z,16.75
2023-04-06T02:50:18.675Z,16.95
2023-04-06T02:52:49.493Z,15.95
2023-04-06T02:55:19.555Z,16.02
2023-04-06T02:57:50.551Z,18.10
2023-04-06T03:00:21.751Z,18.25
2023-04-06T03:02:52.143Z,16.40
2023-04-06T03:05:21.555Z,15.95
2023-04-06T03:07:53.065Z,17.80
2023-04-06T03:10:25.410Z,17.55
2023-04-06T03:12:54.592Z,18.30
2023-04-06T03:15:28.380Z,15.00
2023-04-06T03:18:00.887Z,16.37
2023-04-06T03:20:38.247Z,15.40
2023-04-06T03:23:08.213Z,16.97
2023-04-06T03:25:41.051Z,17.35
2023-04-06T03:28:11.630Z,17.10
2023-04-06T03:30:42.416Z,19.57
2023-04-06T03:33:11.813Z,16.15
2023-04-06T03:35:43.475Z,15.40
2023-04-06T03:38:14.345Z,16.20
2023-04-06T03:40:43.640Z,15.05
2023-04-06T03:43:12.603Z,17.07
2023-04-06T03:45:41.727Z,18.32
2023-04-06T03:48:11.552Z,17.30
2023-04-06T03:50:43.507Z,15.15
2023-04-06T03:53:12.893Z,15.48
2023-04-06T03:55:43.185Z,16.73
2023-04-06T03:58:14.052Z,15.13
2023-04-06T04:00:44.531Z,16.10
2023-04-06T04:03:16.610Z,16.35
2023-04-06T04:05:45.812Z,13.88
2023-04-06T04:08:16.491Z,18.27
2023-04-06T04:10:46.904Z,16.35
2023-04-06T04:13:15.538Z,15.40
2023-04-06T04:15:48.894Z,20.12
2023-04-06T04:18:18.334Z,17.10
2023-04-06T04:20:47.497Z,18.30
2023-04-06T04:23:16.616Z,16.10
2023-04-06T04:25:46.513Z,15.35
2023-04-06T04:28:15.742Z,15.93
2023-04-06T04:30:47.615Z,16.60
2023-04-06T04:33:16.750Z,14.58
2023-04-06T04:35:45.643Z,16.80
2023-04-06T04:38:17.641Z,14.70
2023-04-06T04:40:49.418Z,19.00
2023-04-06T04:43:20.128Z,16.80
2023-04-06T04:45:50.123Z,16.40
2023-04-06T04:48:22.040Z,16.80
2023-04-06T04:50:56.273Z,17.80
2023-04-06T04:53:27.752Z,16.62
2023-04-06T04:56:00.888Z,17.42
2023-04-06T04:58:32.583Z,16.67
2023-04-06T05:01:01.726Z,15.15
2023-04-06T05:03:33.786Z,17.07
2023-04-06T05:06:06.435Z,14.90
2023-04-06T05:08:37.364Z,13.88
2023-04-06T05:11:06.868Z,13.95
2023-04-06T05:13:39.515Z,18.07
2023-04-06T05:16:13.198Z,15.05
2023-04-06T05:18:42.535Z,14.58
2023-04-06T05:21:13.042Z,26.20
2023-04-06T05:23:43.832Z,13.53
2023-04-06T05:26:13.904Z,22.10
2023-04-06T05:28:46.070Z,16.55
2023-04-06T05:31:17.261Z,15.25
2023-04-06T05:33:52.103Z,18.32
2023-04-06T05:36:22.805Z,16.45
2023-04-06T05:38:54.022Z,14.90
2023-04-06T05:41:27.522Z,16.45
2023-04-06T05:43:56.864Z,15.50
2023-04-06T05:46:26.726Z,13.95
2023-04-06T05:48:57.869Z,15.72
2023-04-06T05:51:29.014Z,17.27
2023-04-06T05:54:00.431Z,15.95
2023-04-06T05:56:31.272Z,16.32
2023-04-06T05:59:00.574Z,16.73
2023-04-06T06:01:31.966Z,18.37
2023-04-06T06:04:03.432Z,18.30
2023-04-06T06:06:34.612Z,13.65
2023-04-06T06:09:06.145Z,16.60
2023-04-06T06:11:39.038Z,20.97
2023-04-06T06:14:08.387Z,18.87
2023-04-06T06:16:39.177Z,17.60
2023-04-06T06:19:10.532Z,19.95
2023-04-06T06:21:39.311Z,21.60
2023-04-06T06:24:10.798Z,25.37
2023-04-06T06:26:40.537Z,20.02
2023-04-06T06:29:13.459Z,23.65
2023-04-06T06:31:43.690Z,23.05
2023-04-06T06:34:14.135Z,22.60
2023-04-06T06:36:48.346Z,21.30
2023-04-06T06:39:18.644Z,23.15
2023-04-06T06:41:49.479Z,23.02
2023-04-06T06:44:19.376Z,25.57
2023-04-06T06:46:49.843Z,20.88
2023-04-06T06:49:20.651Z,24.60
2023-04-06T06:51:49.671Z,23.77
2023-04-06T06:54:19.707Z,21.65
2023-04-06T06:56:48.461Z,20.32
2023-04-06T06:59:17.453Z,26.80
2023-04-06T07:01:46.769Z,18.30
2023-04-06T07:04:17.176Z,20.45
2023-04-06T07:06:47.674Z,19.17
2023-04-06T07:09:16.807Z,15.28
2023-04-06T07:11:46.922Z,14.75
2023-04-06T07:14:17.664Z,16.25
2023-04-06T07:16:47.686Z,15.85
2023-04-06T07:19:18.037Z,17.30
2023-04-06T07:21:47.031Z,14.45
2023-04-06T07:24:16.200Z,16.62
2023-04-06T07:26:45.563Z,14.43
2023-04-06T07:29:14.917Z,15.98
2023-04-06T07:31:43.711Z,22.77
2023-04-06T07:34:13.347Z,20.45
2023-04-06T07:36:43.834Z,24.47
2023-04-06T07:39:12.696Z,19.98
2023-04-06T07:41:42.076Z,21.02
2023-04-06T07:44:11.240Z,19.42
2023-04-06T07:46:41.003Z,19.70
2023-04-06T07:49:11.806Z,20.37
2023-04-06T07:51:41.552Z,19.30
2023-04-06T07:54:11.107Z,22.80
2023-04-06T07:56:39.815Z,19.25
2023-04-06T07:59:09.516Z,21.62
2023-04-06T08:01:39.333Z,19.75
2023-04-06T08:04:09.105Z,17.55
2023-04-06T08:06:38.876Z,19.07
2023-04-06T08:09:09.904Z,19.90
2023-04-06T08:11:39.588Z,19.32
2023-04-06T08:14:09.166Z,19.75
2023-04-06T08:16:39.903Z,15.23
2023-04-06T08:19:10.614Z,16.00
2023-04-06T08:21:40.853Z,16.23
2023-04-06T08:24:10.179Z,17.57
2023-04-06T08:26:39.975Z,12.47
2023-04-06T08:29:10.912Z,12.85
2023-04-06T08:31:40.351Z,15.80
2023-04-06T08:34:12.220Z,16.15
2023-04-06T08:36:42.843Z,16.90
2023-04-06T08:39:11.558Z,14.47
2023-04-06T08:41:45.674Z,17.92
2023-04-06T08:44:16.831Z,14.80
2023-04-06T08:46:46.265Z,13.43
2023-04-06T08:49:15.236Z,14.50
2023-04-06T08:51:44.709Z,13.35
2023-04-06T08:54:13.640Z,19.00
2023-04-06T08:56:43.819Z,15.58
2023-04-06T08:59:13.255Z,13.28
2023-04-06T09:01:42.619Z,14.95
2023-04-06T09:04:13.392Z,16.25
2023-04-06T09:06:43.180Z,11.30
2023-04-06T09:09:13.091Z,17.73
2023-04-06T09:11:50.469Z,16.85
2023-04-06T09:14:38.555Z,15.75
2023-04-06T09:17:12.648Z,14.90
2023-04-06T09:19:48.550Z,14.20
2023-04-06T09:22:17.919Z,13.70
2023-04-06T09:24:55.530Z,14.50
2023-04-06T09:27:36.231Z,9.68
2023-04-06T09:30:12.385Z,12.63
2023-04-06T09:32:50.429Z,12.60
2023-04-06T09:35:25.022Z,13.03
2023-04-06T09:37:55.002Z,17.10
2023-04-06T09:40:25.205Z,14.68
2023-04-06T09:42:55.571Z,15.15
2023-04-06T09:45:24.557Z,14.93
2023-04-06T09:47:55.929Z,17.45
2023-04-06T09:50:26.929Z,15.00
2023-04-06T09:52:56.564Z,14.30
2023-04-06T09:55:30.721Z,18.32
2023-04-06T09:58:05.035Z,12.58
2023-04-06T10:00:53.095Z,18.37
2023-04-06T10:03:53.439Z,13.18
2023-04-06T10:06:24.301Z,20.27
2023-04-06T10:08:55.229Z,18.20
2023-04-06T10:11:26.095Z,20.70
2023-04-06T10:13:55.449Z,18.50
2023-04-06T10:16:25.672Z,21.48
2023-04-06T10:19:01.287Z,20.10
2023-04-06T10:21:31.707Z,19.23
2023-04-06T10:24:03.210Z,19.05
2023-04-06T10:26:32.919Z,19.48
2023-04-06T10:29:07.997Z,21.55
2023-04-06T10:31:41.120Z,19.37
2023-04-06T10:34:11.174Z,21.42
2023-04-06T10:36:41.727Z,23.57
2023-04-06T10:39:11.094Z,19.52
2023-04-06T10:41:45.902Z,22.20
2023-04-06T10:44:25.944Z,21.77
2023-04-06T10:47:02.883Z,21.77
2023-04-06T10:52:01.102Z,19.50
2023-04-06T10:54:30.852Z,18.40
2023-04-06T10:57:00.515Z,17.90
2023-04-06T10:59:31.840Z,16.17
2023-04-06T11:02:01.147Z,18.42
2023-04-06T11:04:32.253Z,16.90
2023-04-06T11:07:02.973Z,16.73
2023-04-06T11:09:34.293Z,18.00
2023-04-06T11:12:03.925Z,19.62
2023-04-06T11:14:33.388Z,21.85
2023-04-06T11:17:03.361Z,23.30
2023-04-06T11:19:34.265Z,23.85
2023-04-06T11:22:09.289Z,25.90
2023-04-06T11:24:38.792Z,29.85
2023-04-06T11:27:07.938Z,27.73
2023-04-06T11:29:38.831Z,24.55
2023-04-06T11:32:09.396Z,27.82
2023-04-06T11:34:40.242Z,30.85
2023-04-06T11:37:12.260Z,31.80
2023-04-06T11:39:53.140Z,32.98
2023-04-06T11:42:30.181Z,36.60
2023-04-06T11:44:59.179Z,34.15
2023-04-06T11:47:33.602Z,31.02
2023-04-06T11:50:11.674Z,29.18
2023-04-06T11:52:42.054Z,35.75
2023-04-06T11:55:18.153Z,31.27
2023-04-06T11:57:47.447Z,32.48
2023-04-06T12:00:18.889Z,32.08
2023-04-06T12:02:49.961Z,34.38
2023-04-06T12:05:19.736Z,26.50
2023-04-06T12:07:50.205Z,25.92
2023-04-06T12:10:19.772Z,25.62
2023-04-06T12:12:49.101Z,23.98
2023-04-06T12:15:18.685Z,21.10
2023-04-06T12:17:48.218Z,27.65
2023-04-06T12:20:25.710Z,22.32
2023-04-06T12:22:50.728Z,23.10
2023-04-06T12:25:20.278Z,22.82
2023-04-06T12:27:50.715Z,22.35
2023-04-06T12:30:22.782Z,26.12
2023-04-06T12:32:53.601Z,20.12
2023-04-06T12:35:22.993Z,18.85
2023-04-06T12:37:52.163Z,19.20
2023-04-06T12:40:21.711Z,18.27
2023-04-06T12:42:50.782Z,15.45
2023-04-06T12:45:20.246Z,15.90
2023-04-06T12:47:50.723Z,16.87
2023-04-06T12:50:19.787Z,19.23
2023-04-06T12:52:53.853Z,17.92
2023-04-06T12:55:23.797Z,17.30
2023-04-06T12:57:56.907Z,15.88
2023-04-06T13:00:30.317Z,16.87
2023-04-06T13:03:02.503Z,16.23
2023-04-06T13:05:33.726Z,13.70
2023-04-06T13:08:04.465Z,17.67
2023-04-06T13:10:35.173Z,16.85
2023-04-06T13:13:05.474Z,14.90
2023-04-06T13:15:35.943Z,18.10
2023-04-06T13:18:05.900Z,15.63
2023-04-06T13:20:34.797Z,16.42
2023-04-06T13:23:03.399Z,16.30
2023-04-06T13:25:33.525Z,16.00
2023-04-06T13:28:02.229Z,14.78
2023-04-06T13:30:31.537Z,15.88
2023-04-06T13:33:01.911Z,15.78
2023-04-06T13:35:31.604Z,18.10
2023-04-06T13:38:02.818Z,13.75
2023-04-06T13:40:32.743Z,14.98
2023-04-06T13:43:01.936Z,13.88
2023-04-06T13:45:32.502Z,13.18
2023-04-06T13:48:02.015Z,14.15
2023-04-06T13:50:31.388Z,14.45
2023-04-06T13:53:00.166Z,14.23
2023-04-06T13:55:32.413Z,16.73
2023-04-06T13:58:03.626Z,13.03
2023-04-06T14:00:33.591Z,14.60
2023-04-06T14:03:06.057Z,15.68
2023-04-06T14:05:38.712Z,14.30
2023-04-06T14:08:11.131Z,15.30
2023-04-06T14:10:46.805Z,14.43
2023-04-06T14:13:20.701Z,19.05
2023-04-06T14:15:54.839Z,15.88
2023-04-06T14:18:24.319Z,14.33
2023-04-06T14:20:56.887Z,19.35
2023-04-06T14:23:27.334Z,16.55
2023-04-06T14:26:24.825Z,17.37
2023-04-06T14:29:03.171Z,17.90
2023-04-06T14:31:39.347Z,14.13
2023-04-06T14:34:15.628Z,14.43
2023-04-06T14:36:54.981Z,16.32
2023-04-06T14:39:26.485Z,18.05
2023-04-06T14:41:55.418Z,16.60
2023-04-06T14:44:24.432Z,17.00
2023-04-06T14:46:53.210Z,20.08
2023-04-06T14:49:22.299Z,20.52
2023-04-06T14:51:52.569Z,16.40
2023-04-06T14:54:23.252Z,18.48
2023-04-06T14:56:57.740Z,20.45
2023-04-06T15:02:00.236Z,21.33
2023-04-06T15:04:40.819Z,18.55
2023-04-06T15:07:13.182Z,20.48
2023-04-06T15:09:43.881Z,17.82
2023-04-06T15:12:12.886Z,24.98
2023-04-06T15:14:41.739Z,24.90
2023-04-06T15:17:10.754Z,22.37
2023-04-06T15:19:39.726Z,21.65
2023-04-06T15:22:09.649Z,19.02
2023-04-06T15:24:39.351Z,20.25
2023-04-06T15:27:09.774Z,21.77
2023-04-06T15:29:39.566Z,19.65
2023-04-06T15:32:08.402Z,21.45
2023-04-06T15:34:37.295Z,25.52
2023-04-06T15:37:06.385Z,21.40
2023-04-06T15:39:35.281Z,21.62
2023-04-06T15:42:05.660Z,20.43
2023-04-06T15:44:35.094Z,21.42
2023-04-06T15:47:03.979Z,21.48
2023-04-06T15:49:32.898Z,19.10
2023-04-06T15:52:07.525Z,23.67
2023-04-06T15:54:38.212Z,19.00
2023-04-06T15:57:08.101Z,19.00
2023-04-06T15:59:37.131Z,21.12
2023-04-06T16:02:06.695Z,19.20
2023-04-06T16:04:36.065Z,22.50
2023-04-06T16:07:05.292Z,17.62
2023-04-06T16:09:34.215Z,19.12
2023-04-06T16:12:03.180Z,18.57
2023-04-06T16:14:32.159Z,19.80
2023-04-06T16:17:01.839Z,19.62
2023-04-06T16:19:31.203Z,20.48
2023-04-06T16:22:01.286Z,21.02
2023-04-06T16:24:31.611Z,22.30
2023-04-06T16:27:01.961Z,20.62
2023-04-06T16:29:33.397Z,22.70
2023-04-06T16:32:04.026Z,24.77
2023-04-06T16:34:36.670Z,21.15
2023-04-06T16:37:06.083Z,21.70
2023-04-06T16:39:35.840Z,15.68
2023-04-06T16:42:05.953Z,14.43
2023-04-06T16:44:34.940Z,14.23
2023-04-06T16:47:04.391Z,15.98
2023-04-06T16:49:34.456Z,15.32
2023-04-06T16:52:05.322Z,15.68
2023-04-06T16:54:36.249Z,16.00
2023-04-06T16:57:06.994Z,15.93
2023-04-06T16:59:35.891Z,15.38
2023-04-06T17:02:06.285Z,15.45
2023-04-06T17:04:37.549Z,16.23
2023-04-06T17:07:07.052Z,18.15
2023-04-06T17:09:35.889Z,18.62
2023-04-06T17:12:06.800Z,15.48
2023-04-06T17:14:35.875Z,15.30
2023-04-06T17:17:04.511Z,14.83
2023-04-06T17:19:34.834Z,14.05
2023-04-06T17:22:04.091Z,13.58
2023-04-06T17:24:33.092Z,14.05
2023-04-06T17:27:03.010Z,15.63
2023-04-06T17:29:36.233Z,13.62
2023-04-06T17:32:06.275Z,13.53
2023-04-06T17:34:36.378Z,13.03
2023-04-06T17:37:05.378Z,14.93
2023-04-06T17:39:34.475Z,12.10
2023-04-06T17:42:04.765Z,13.45
2023-04-06T17:44:33.939Z,13.95
2023-04-06T17:47:03.578Z,15.40
2023-04-06T17:49:33.924Z,14.73
2023-04-06T17:52:03.179Z,17.12
2023-04-06T17:54:35.563Z,13.30
2023-04-06T17:57:07.317Z,12.20
2023-04-06T17:59:36.207Z,13.70
2023-04-06T18:02:06.997Z,12.80
2023-04-06T18:04:38.240Z,11.70
2023-04-06T18:07:07.202Z,13.60
2023-04-06T18:09:39.201Z,16.23
2023-04-06T18:12:08.452Z,13.60
2023-04-06T18:14:39.026Z,13.98
2023-04-06T18:17:09.827Z,13.20
2023-04-06T18:19:42.004Z,13.08
2023-04-06T18:22:11.924Z,12.28
2023-04-06T18:24:43.333Z,13.10
2023-04-06T18:27:12.925Z,10.43
2023-04-06T18:29:47.381Z,10.03
2023-04-06T18:32:17.279Z,8.95
2023-04-06T18:34:46.628Z,11.90
2023-04-06T18:37:16.033Z,12.05
2023-04-06T18:39:50.428Z,10.43
2023-04-06T18:42:20.581Z,11.97
2023-04-06T18:44:49.594Z,11.53
2023-04-06T18:47:19.263Z,9.90
2023-04-06T18:49:48.113Z,12.88
2023-04-06T18:52:17.658Z,10.95
2023-04-06T18:54:46.690Z,10.43
2023-04-06T18:57:17.897Z,11.73
2023-04-06T18:59:48.734Z,11.93
2023-04-06T19:02:19.657Z,12.50
2023-04-06T19:04:48.683Z,11.55
2023-04-06T19:07:17.948Z,10.23
2023-04-06T19:09:48.553Z,12.58
2023-04-06T19:12:17.629Z,12.68
2023-04-06T19:14:48.573Z,14.45
2023-04-06T19:17:18.478Z,17.80
2023-04-06T19:19:48.624Z,15.98
2023-04-06T19:22:17.792Z,18.85
2023-04-06T19:24:49.290Z,26.00
2023-04-06T19:27:18.347Z,24.77
2023-04-06T19:29:48.659Z,25.08
2023-04-06T19:32:17.807Z,29.10
2023-04-06T19:34:46.749Z,25.60
2023-04-06T19:37:15.666Z,27.58
2023-04-06T19:39:44.585Z,32.33
2023-04-06T19:42:20.171Z,29.32
2023-04-06T19:44:49.374Z,30.37
2023-04-06T19:47:18.385Z,32.10
2023-04-06T19:49:47.438Z,26.60
2023-04-06T19:52:16.781Z,30.23
2023-04-06T19:54:46.856Z,27.73
2023-04-06T19:57:16.197Z,28.02
2023-04-06T19:59:46.108Z,22.27
2023-04-06T20:02:14.926Z,23.98
2023-04-06T20:04:44.412Z,22.52
2023-04-06T20:07:14.821Z,18.12
2023-04-06T20:09:43.833Z,18.00
2023-04-06T20:12:12.900Z,20.90
2023-04-06T20:14:42.018Z,16.15
2023-04-06T20:17:12.325Z,19.55
2023-04-06T20:19:43.391Z,16.52
2023-04-06T20:22:13.019Z,15.45
2023-04-06T20:24:43.294Z,19.80
2023-04-06T20:27:12.670Z,18.65
2023-04-06T20:29:42.536Z,15.65
2023-04-06T20:32:11.982Z,11.43
2023-04-06T20:34:41.657Z,15.70
2023-04-06T20:37:11.414Z,13.40
2023-04-06T20:39:40.462Z,12.13
2023-04-06T20:42:10.180Z,12.75
2023-04-06T20:44:41.956Z,13.58
2023-04-06T20:47:11.138Z,16.02
2023-04-06T20:49:41.336Z,17.37
2023-04-06T20:52:10.281Z,15.28
2023-04-06T20:54:39.542Z,16.00
2023-04-06T20:57:08.416Z,16.45
2023-04-06T20:59:37.718Z,18.65
2023-04-06T21:02:07.032Z,15.80
2023-04-06T21:04:37.366Z,17.67
2023-04-06T21:07:06.966Z,15.83
2023-04-06T21:09:39.333Z,14.93
2023-04-06T21:12:09.033Z,13.43
2023-04-06T21:14:37.772Z,18.55
2023-04-06T21:17:07.468Z,12.37
2023-04-06T21:19:37.834Z,13.28
2023-04-06T21:22:07.095Z,9.50
2023-04-06T21:24:37.571Z,12.47
2023-04-06T21:27:08.290Z,6.85
2023-04-06T21:29:39.824Z,9.50
2023-04-06T21:32:09.430Z,10.78
2023-04-06T21:34:38.679Z,9.13
2023-04-06T21:37:09.179Z,9.55
2023-04-06T21:39:39.215Z,10.82
2023-04-06T21:42:08.166Z,10.63
2023-04-06T21:44:36.895Z,11.53
2023-04-06T21:47:05.928Z,10.00
2023-04-06T21:49:36.584Z,10.90
2023-04-06T21:52:05.414Z,10.05
2023-04-06T21:54:34.532Z,16.57
2023-04-06T21:57:04.492Z,16.70
2023-04-06T21:59:34.810Z,16.27
2023-04-06T22:02:05.697Z,15.20
2023-04-06T22:04:35.013Z,16.30
2023-04-06T22:07:04.436Z,17.55
2023-04-06T22:09:33.183Z,18.77
2023-04-06T22:12:04.398Z,16.07
2023-04-06T22:14:36.764Z,15.00
2023-04-06T22:17:06.201Z,18.48
2023-04-06T22:19:38.951Z,11.70
2023-04-06T22:22:07.772Z,12.93
2023-04-06T22:24:36.802Z,13.35
2023-04-06T22:27:06.098Z,12.55
2023-04-06T22:29:36.268Z,12.13
2023-04-06T22:32:06.888Z,11.12
2023-04-06T22:34:36.258Z,12.85
2023-04-06T22:37:05.191Z,10.80
2023-04-06T22:39:35.039Z,10.72
2023-04-06T22:42:05.672Z,11.85
2023-04-06T22:44:34.941Z,9.50
2023-04-06T22:47:03.706Z,12.70
2023-04-06T22:49:34.086Z,8.50
2023-04-06T22:52:04.706Z,8.68
2023-04-06T22:54:34.914Z,8.63
2023-04-06T22:57:04.113Z,8.25
2023-04-06T22:59:33.040Z,6.90
2023-04-06T23:02:02.011Z,8.40
2023-04-06T23:04:31.818Z,8.18
2023-04-06T23:07:02.247Z,7.17
2023-04-06T23:09:31.295Z,8.38
2023-04-06T23:12:00.149Z,8.45
2023-04-06T23:14:29.230Z,9.50
2023-04-06T23:16:58.689Z,8.68
2023-04-06T23:19:28.576Z,7.00
2023-04-06T23:21:58.477Z,9.40
2023-04-06T23:24:29.119Z,9.30
2023-04-06T23:26:59.252Z,10.08
2023-04-06T23:29:29.655Z,9.38
2023-04-06T23:31:58.684Z,10.25
2023-04-06T23:34:27.544Z,8.18
2023-04-06T23:37:00.008Z,7.35
2023-04-06T23:39:29.700Z,9.63
2023-04-06T23:41:58.265Z,6.50
2023-04-06T23:44:31.708Z,7.37
2023-04-06T23:47:02.346Z,8.23
2023-04-06T23:49:31.867Z,6.97
2023-04-06T23:52:00.640Z,9.78
2023-04-06T23:54:29.666Z,6.62
2023-04-06T23:56:59.346Z,7.87
2023-04-06T23:59:30.833Z,6.75
